aviador You're here:

KZPH Decoded Metar

in
Report Time2018-05-28 04:55:00
UTC Time2018-05-28 04:52:57
Flight Rules vfr VFR
Wind140° at 07 kt
W.Decomp.*RWY 18: 5.4 kt HW 4.5 kt LCW
RWY 19: 4.5 kt HW 5.4 kt LCW
RWY 22: 1.2 kt HW 6.9 kt LCW
RWY 05: 7.0 kt RCW
W.Rank140° ranks 14
Current wind is above 140° avg. (5.7)
Visibility9999 m
Phenomena:N/A
Clouds:Scattered 021 Hf
Expected CloudBase > 400 ft AGL from Temp-Dew spread
CeilingNone
Temp24°C
Dew Point23°C (94% RH)
QNH1009 hPa
Raw Report
METAR KZPH 280455Z AUTO 14007KT 10SM SCT021 24/23 A2981 RMK AO2 LTG
DSNT SW T02390226=

Extra information for KZPH:More info

Social comments